ADDS METAR Data INFO
IDs: Format: Raw Decoded Include TAF

Data at: 1912 UTC 23 Apr 2018

KELZ 231856Z AUTO 22008G21KT 190V250 10SM CLR 19/00 A3032 RMK AO2 SLP270 T01940000
KELZ 231756Z AUTO 15010G17KT 120V190 10SM CLR 19/M01 A3033 RMK AO2 SLP274 T01941006 10194 20072 56019
KELZ 231656Z AUTO 15010G17KT 10SM CLR 18/M02 A3035 RMK AO2 SLP280 T01831022
KELZ 231556Z AUTO 18010G17KT 110V200 10SM CLR 18/M04 A3037 RMK AO2 SLP289 T01781039
KELZ 231456Z AUTO 15013G18KT 10SM CLR 16/M05 A3039 RMK AO2 SLP296 T01561050 58006
KELZ 231356Z AUTO VRB06KT 10SM CLR 13/M04 A3041 RMK AO2 SLP303 T01281044
KELZ 231256Z AUTO 14011KT 10SM CLR 09/M07 A3042 RMK AO2 SLP309 T00941072
KELZ 231156Z AUTO 15006KT 10SM CLR 07/M07 A3041 RMK AO2 SLP306 T00721072 10072 20033 53009
KELZ 231056Z AUTO 12004KT 10SM CLR 04/M08 A3040 RMK AO2 SLP303 T00441083 $
KELZ 230956Z AUTO 12006KT 10SM CLR 04/M08 A3039 RMK AO2 SLP298 T00391083 $
KELZ 230856Z AUTO 13006KT 10SM CLR 04/M08 A3038 RMK AO2 SLP296 T00391083 58004 $
KELZ 230756Z AUTO 13005KT 10SM CLR 04/M08 A3039 RMK AO2 SLP299 T00391078 $
KELZ 230656Z AUTO 12004KT 10SM CLR 05/M08 A3039 RMK AO2 SLP299 T00501078 $
KELZ 230556Z AUTO 12004KT 10SM CLR 06/M08 A3040 RMK AO2 SLP299 T00561078 10117 20056 50003 $
KELZ 230456Z AUTO 11005KT 10SM CLR 07/M08 A3040 RMK AO2 SLP300 T00671078 401611011 $
KELZ 230356Z AUTO 13004KT 10SM CLR 07/M08 A3039 RMK AO2 SLP299 T00721078 $
KELZ 230256Z AUTO 08004KT 10SM CLR 08/M08 A3039 RMK AO2 SLP298 T00781078 50008 $
KELZ 230156Z AUTO 08004KT 10SM CLR 09/M07 A3040 RMK AO2 SLP301 T00891072 $
KELZ 230056Z AUTO 07005KT 10SM CLR 09/M07 A3038 RMK AO2 SLP297 T00941072 $
KELZ 222356Z AUTO 04004KT 10SM CLR 12/M08 A3036 RMK AO2 SLP292 T01171083 10161 20117 53004 $
KELZ 222256Z AUTO 08005KT 10SM CLR 14/M08 A3035 RMK AO2 SLP288 T01391083 $
KELZ 222156Z AUTO 05005KT 10SM CLR 15/M09 A3035 RMK AO2 SLP287 T01501089 $
KELZ 222056Z AUTO 09009KT 10SM CLR 16/M08 A3035 RMK AO2 SLP287 T01561083 56011 $
KELZ 221956Z AUTO 12007KT 10SM CLR 15/M09 A3036 RMK AO2 SLP291 T01501089 $
KELZ 221856Z AUTO 13007KT 080V180 10SM CLR 14/M10 A3037 RMK AO2 SLP296 T01441100 $
KELZ 221756Z AUTO 11005KT 10SM CLR 15/M09 A3038 RMK AO2 SLP298 T01501089 10156 20028 56015 $
KELZ 221656Z AUTO VRB03KT 10SM CLR 14/M08 A3040 RMK AO2 SLP301 T01391083 $
KELZ 221556Z AUTO VRB04KT 10SM CLR 13/M10 A3042 RMK AO2 SLP309 T01281100 $
KELZ 221456Z AUTO 13006KT 10SM CLR 11/M08 A3043 RMK AO2 SLP315 T01111078 50006 $
KELZ 221356Z AUTO 12004KT 10SM CLR 09/M06 A3043 RMK AO2 SLP318 T00941056 $
KELZ 221256Z AUTO 00000KT 10SM CLR 07/M03 A3043 RMK AO2 SLP317 T00671028 $
KELZ 221156Z AUTO 00000KT 10SM CLR 03/M03 A3041 RMK AO2 SLP313 T00331033 10033 21011 53010 $
KELZ 221056Z AUTO 00000KT 10SM CLR M01/M05 A3040 RMK AO2 SLP311 T10111050 $
KELZ 220956Z AUTO 00000KT 10SM CLR 01/M06 A3039 RMK AO2 SLP306 T00061061 $
KELZ 220856Z AUTO 00000KT 10SM CLR 01/M06 A3038 RMK AO2 SLP302 T00061056 55004 $
KELZ 220756Z AUTO 00000KT 10SM CLR 01/M06 A3038 RMK AO2 SLP300 T00061056 $